createdAt,value
2022-12-04T00:01:21.824Z,16.73
2022-12-04T00:03:54.330Z,18.40
2022-12-04T00:06:21.939Z,18.65
2022-12-04T00:08:49.105Z,20.55
2022-12-04T00:11:18.936Z,20.00
2022-12-04T00:13:45.764Z,19.20
2022-12-04T00:16:17.772Z,22.52
2022-12-04T00:18:48.414Z,22.63
2022-12-04T00:21:16.724Z,17.98
2022-12-04T00:23:43.973Z,22.70
2022-12-04T00:26:13.043Z,19.92
2022-12-04T00:28:43.604Z,22.95
2022-12-04T00:31:15.565Z,17.70
2022-12-04T00:33:42.266Z,18.98
2022-12-04T00:36:11.405Z,17.70
2022-12-04T00:38:44.695Z,17.63
2022-12-04T00:41:13.419Z,20.52
2022-12-04T00:43:40.110Z,19.88
2022-12-04T00:46:07.432Z,19.50
2022-12-04T00:48:33.956Z,21.15
2022-12-04T00:51:09.804Z,22.13
2022-12-04T00:56:08.155Z,23.75
2022-12-04T00:58:36.866Z,23.48
2022-12-04T01:01:13.597Z,21.10
2022-12-04T01:03:41.146Z,21.73
2022-12-04T01:06:20.383Z,19.55
2022-12-04T01:08:51.473Z,18.67
2022-12-04T01:11:18.716Z,18.65
2022-12-04T01:13:46.358Z,20.85
2022-12-04T01:16:21.972Z,22.05
2022-12-04T01:18:49.595Z,21.73
2022-12-04T01:21:16.781Z,18.90
2022-12-04T01:23:46.406Z,19.85
2022-12-04T01:26:13.779Z,20.23
2022-12-04T01:28:40.809Z,19.88
2022-12-04T01:31:15.193Z,22.77
2022-12-04T01:33:43.006Z,21.35
2022-12-04T01:36:13.189Z,19.27
2022-12-04T01:38:42.449Z,20.73
2022-12-04T01:41:11.527Z,19.48
2022-12-04T01:43:38.946Z,17.80
2022-12-04T01:46:06.676Z,20.00
2022-12-04T01:48:37.584Z,18.27
2022-12-04T01:51:10.565Z,18.38
2022-12-04T01:53:42.194Z,21.30
2022-12-04T01:56:09.523Z,20.48
2022-12-04T01:58:41.929Z,20.83
2022-12-04T02:01:09.709Z,22.08
2022-12-04T02:03:39.516Z,18.75
2022-12-04T02:06:07.124Z,20.95
2022-12-04T02:08:35.947Z,19.35
2022-12-04T02:11:21.390Z,19.15
2022-12-04T02:14:05.530Z,19.77
2022-12-04T02:16:45.420Z,19.10
2022-12-04T02:19:39.058Z,21.23
2022-12-04T02:22:19.446Z,19.35
2022-12-04T02:25:23.261Z,19.05
2022-12-04T02:28:11.545Z,22.25
2022-12-04T02:30:41.410Z,23.15
2022-12-04T02:33:22.223Z,22.40
2022-12-04T02:35:55.318Z,21.17
2022-12-04T02:38:29.399Z,19.50
2022-12-04T02:41:01.205Z,20.55
2022-12-04T02:43:31.746Z,21.38
2022-12-04T02:46:05.731Z,21.60
2022-12-04T02:48:36.746Z,19.73
2022-12-04T02:51:06.781Z,20.02
2022-12-04T02:53:40.374Z,19.60
2022-12-04T02:56:11.877Z,18.13
2022-12-04T02:58:46.665Z,18.92
2022-12-04T03:01:20.086Z,22.85
2022-12-04T03:03:56.316Z,19.88
2022-12-04T03:06:24.704Z,20.30
2022-12-04T03:08:59.736Z,20.60
2022-12-04T03:11:31.319Z,20.25
2022-12-04T03:14:04.689Z,20.27
2022-12-04T03:16:40.735Z,19.48
2022-12-04T03:19:31.497Z,19.92
2022-12-04T03:22:05.060Z,26.90
2022-12-04T03:24:39.207Z,22.98
2022-12-04T03:27:14.025Z,21.25
2022-12-04T03:29:48.273Z,24.52
2022-12-04T03:32:40.387Z,22.77
2022-12-04T03:35:43.377Z,23.98
2022-12-04T03:38:21.299Z,22.17
2022-12-04T03:40:56.684Z,24.77
2022-12-04T03:43:33.187Z,26.00
2022-12-04T03:46:08.457Z,22.02
2022-12-04T03:48:42.669Z,27.35
2022-12-04T03:51:22.325Z,22.00
2022-12-04T03:54:02.705Z,22.83
2022-12-04T03:56:35.347Z,20.80
2022-12-04T03:59:18.711Z,21.13
2022-12-04T04:01:51.492Z,23.27
2022-12-04T04:04:32.322Z,23.33
2022-12-04T04:07:07.424Z,21.23
2022-12-04T04:09:37.125Z,18.40
2022-12-04T04:12:18.580Z,19.17
2022-12-04T04:15:14.532Z,20.60
2022-12-04T04:18:03.471Z,21.48
2022-12-04T04:21:03.492Z,24.40
2022-12-04T04:23:54.357Z,26.17
2022-12-04T04:26:22.809Z,21.77
2022-12-04T04:28:49.399Z,21.95
2022-12-04T04:31:45.301Z,22.50
2022-12-04T04:34:18.589Z,22.88
2022-12-04T04:36:54.789Z,22.63
2022-12-04T04:39:36.116Z,22.67
2022-12-04T04:42:10.606Z,26.33
2022-12-04T04:44:58.885Z,24.88
2022-12-04T04:47:43.026Z,24.90
2022-12-04T04:50:11.971Z,22.85
2022-12-04T04:52:42.170Z,24.88
2022-12-04T04:55:11.150Z,25.25
2022-12-04T04:57:37.694Z,23.30
2022-12-04T05:00:23.058Z,20.90
2022-12-04T05:02:50.479Z,20.20
2022-12-04T05:05:17.821Z,23.40
2022-12-04T05:07:46.542Z,20.02
2022-12-04T05:10:14.048Z,22.90
2022-12-04T05:12:40.525Z,20.63
2022-12-04T05:15:07.596Z,24.55
2022-12-04T05:17:35.737Z,25.55
2022-12-04T05:20:03.943Z,20.63
2022-12-04T05:22:37.753Z,22.63
2022-12-04T05:25:04.941Z,22.20
2022-12-04T05:27:34.044Z,27.17
2022-12-04T05:30:02.369Z,24.95
2022-12-04T05:32:29.661Z,24.17
2022-12-04T05:34:58.129Z,23.13
2022-12-04T05:37:31.861Z,25.23
2022-12-04T05:39:58.771Z,24.05
2022-12-04T05:42:27.775Z,25.45
2022-12-04T05:44:54.329Z,22.08
2022-12-04T05:47:22.509Z,24.42
2022-12-04T05:49:49.094Z,23.98
2022-12-04T05:52:23.440Z,25.92
2022-12-04T05:54:49.900Z,26.40
2022-12-04T05:57:16.396Z,20.45
2022-12-04T05:59:55.552Z,20.63
2022-12-04T06:02:25.022Z,23.70
2022-12-04T06:04:51.618Z,21.73
2022-12-04T06:07:20.397Z,21.73
2022-12-04T06:09:46.905Z,19.25
2022-12-04T06:12:13.396Z,21.83
2022-12-04T06:14:44.453Z,22.67
2022-12-04T06:17:10.933Z,23.98
2022-12-04T06:19:37.500Z,18.60
2022-12-04T06:22:04.085Z,21.55
2022-12-04T06:24:30.854Z,22.25
2022-12-04T06:29:47.656Z,20.13
2022-12-04T06:32:20.944Z,20.27
2022-12-04T06:34:53.428Z,17.40
2022-12-04T06:37:22.545Z,20.08
2022-12-04T06:39:49.434Z,19.77
2022-12-04T06:42:16.694Z,20.60
2022-12-04T06:44:43.212Z,22.42
2022-12-04T06:47:13.374Z,22.48
2022-12-04T06:49:40.200Z,19.30
2022-12-04T06:52:06.647Z,19.67
2022-12-04T06:54:33.126Z,16.52
2022-12-04T06:57:06.272Z,20.83
2022-12-04T06:59:34.035Z,18.27
2022-12-04T07:02:00.554Z,20.15
2022-12-04T07:04:27.257Z,20.40
2022-12-04T07:06:55.464Z,16.02
2022-12-04T07:09:22.012Z,15.98
2022-12-04T07:11:48.690Z,17.48
2022-12-04T07:14:15.197Z,19.67
2022-12-04T07:16:42.699Z,18.67
2022-12-04T07:19:20.230Z,18.13
2022-12-04T07:21:46.729Z,18.75
2022-12-04T07:24:16.307Z,17.55
2022-12-04T07:26:44.620Z,17.35
2022-12-04T07:29:11.771Z,16.23
2022-12-04T07:31:38.528Z,17.25
2022-12-04T07:34:07.321Z,15.73
2022-12-04T07:36:33.871Z,16.20
2022-12-04T07:39:00.479Z,14.52
2022-12-04T07:41:27.044Z,15.85
2022-12-04T07:43:54.329Z,17.73
2022-12-04T07:46:23.584Z,13.43
2022-12-04T07:48:52.543Z,17.70
2022-12-04T07:51:22.138Z,18.40
2022-12-04T07:53:49.985Z,18.73
2022-12-04T07:56:17.345Z,17.50
2022-12-04T07:58:44.210Z,15.63
2022-12-04T08:01:13.354Z,19.80
2022-12-04T08:03:47.103Z,18.02
2022-12-04T08:06:17.963Z,17.38
2022-12-04T08:08:44.924Z,18.75
2022-12-04T08:11:17.323Z,14.75
2022-12-04T08:13:44.366Z,17.60
2022-12-04T08:16:12.453Z,14.07
2022-12-04T08:18:40.315Z,18.27
2022-12-04T08:21:11.972Z,14.70
2022-12-04T08:23:40.404Z,14.25
2022-12-04T08:26:07.995Z,16.95
2022-12-04T08:28:35.480Z,20.55
2022-12-04T08:31:08.185Z,16.80
2022-12-04T08:33:35.919Z,23.45
2022-12-04T08:36:05.751Z,21.80
2022-12-04T08:38:34.567Z,19.00
2022-12-04T08:41:02.382Z,20.45
2022-12-04T08:43:29.540Z,23.63
2022-12-04T08:46:01.465Z,22.83
2022-12-04T08:48:30.834Z,20.02
2022-12-04T08:50:57.494Z,20.15
2022-12-04T08:53:24.805Z,22.65
2022-12-04T08:55:52.173Z,21.88
2022-12-04T08:58:19.972Z,22.27
2022-12-04T09:00:48.305Z,19.20
2022-12-04T09:03:23.556Z,21.33
2022-12-04T09:05:52.834Z,21.27
2022-12-04T09:08:21.381Z,21.13
2022-12-04T09:10:47.926Z,20.58
2022-12-04T09:13:16.155Z,23.15
2022-12-04T09:15:42.703Z,23.05
2022-12-04T09:18:09.354Z,22.98
2022-12-04T09:20:38.111Z,21.02
2022-12-04T09:23:05.791Z,22.45
2022-12-04T09:25:35.976Z,22.67
2022-12-04T09:28:02.678Z,24.80
2022-12-04T09:30:29.153Z,22.77
2022-12-04T09:32:56.239Z,25.20
2022-12-04T09:35:24.532Z,26.77
2022-12-04T09:37:51.081Z,22.48
2022-12-04T09:40:54.694Z,24.90
2022-12-04T09:43:51.047Z,26.00
2022-12-04T09:46:31.057Z,26.58
2022-12-04T09:49:02.220Z,25.23
2022-12-04T09:51:31.213Z,25.27
2022-12-04T09:54:04.006Z,25.15
2022-12-04T09:56:32.239Z,27.45
2022-12-04T09:59:10.749Z,22.92
2022-12-04T10:01:48.526Z,25.23
2022-12-04T10:04:17.276Z,25.45
2022-12-04T10:06:46.752Z,28.10
2022-12-04T10:09:22.452Z,26.67
2022-12-04T10:14:55.772Z,28.15
2022-12-04T10:17:37.277Z,26.13
2022-12-04T10:20:19.162Z,31.00
2022-12-04T10:23:16.507Z,24.95
2022-12-04T10:25:49.586Z,27.60
2022-12-04T10:28:24.878Z,29.80
2022-12-04T10:30:57.346Z,29.27
2022-12-04T10:33:38.094Z,30.52
2022-12-04T10:39:38.585Z,26.75
2022-12-04T10:42:28.460Z,25.90
2022-12-04T10:44:59.393Z,26.98
2022-12-04T10:47:26.390Z,24.13
2022-12-04T10:50:02.485Z,25.38
2022-12-04T10:52:29.259Z,27.10
2022-12-04T10:54:59.682Z,27.50
2022-12-04T10:57:42.865Z,25.92
2022-12-04T11:00:34.940Z,28.77
2022-12-04T11:03:12.471Z,24.52
2022-12-04T11:05:45.917Z,21.38
2022-12-04T11:08:26.454Z,28.73
2022-12-04T11:11:06.297Z,24.10
2022-12-04T11:13:34.886Z,20.55
2022-12-04T11:16:01.711Z,20.02
2022-12-04T11:18:34.034Z,17.45
2022-12-04T11:21:07.155Z,19.08
2022-12-04T11:23:43.106Z,22.40
2022-12-04T11:26:10.848Z,22.23
2022-12-04T11:28:42.040Z,17.73
2022-12-04T11:31:15.292Z,16.65
2022-12-04T11:34:00.137Z,17.17
2022-12-04T11:36:33.311Z,12.85
2022-12-04T11:39:18.923Z,14.80
2022-12-04T11:41:47.397Z,11.80
2022-12-04T11:44:26.404Z,16.27
2022-12-04T11:46:55.982Z,15.57
2022-12-04T11:49:24.314Z,13.13
2022-12-04T11:51:59.885Z,16.80
2022-12-04T11:54:29.153Z,16.25
2022-12-04T11:57:23.289Z,15.57
2022-12-04T12:00:18.977Z,20.08
2022-12-04T12:03:20.536Z,21.87
2022-12-04T12:05:56.130Z,24.48
2022-12-04T12:08:45.146Z,17.30
2022-12-04T12:11:36.208Z,18.88
2022-12-04T12:14:38.338Z,18.50
2022-12-04T12:17:25.737Z,16.80
2022-12-04T12:20:19.543Z,18.00
2022-12-04T12:23:20.024Z,25.67
2022-12-04T12:26:04.249Z,24.90
2022-12-04T12:28:50.882Z,16.52
2022-12-04T12:31:30.766Z,19.67
2022-12-04T12:34:16.407Z,17.10
2022-12-04T12:36:49.777Z,17.27
2022-12-04T12:39:22.996Z,24.02
2022-12-04T12:41:55.930Z,24.45
2022-12-04T12:44:53.591Z,21.45
2022-12-04T12:47:30.246Z,18.25
2022-12-04T12:50:14.370Z,22.85
2022-12-04T12:52:49.625Z,20.45
2022-12-04T12:55:26.329Z,15.70
2022-12-04T12:58:06.648Z,19.80
2022-12-04T13:00:39.537Z,18.80
2022-12-04T13:03:25.301Z,17.38
2022-12-04T13:05:56.852Z,12.48
2022-12-04T13:08:29.662Z,18.25
2022-12-04T13:11:18.037Z,17.92
2022-12-04T13:13:52.955Z,14.05
2022-12-04T13:16:31.212Z,16.20
2022-12-04T13:19:07.648Z,16.55
2022-12-04T13:21:41.912Z,28.95
2022-12-04T13:24:37.468Z,22.27
2022-12-04T13:27:15.309Z,17.35
2022-12-04T13:29:59.446Z,17.58
2022-12-04T13:32:53.694Z,18.50
2022-12-04T13:35:58.924Z,19.00
2022-12-04T13:38:58.347Z,15.80
2022-12-04T13:41:29.368Z,14.55
2022-12-04T13:43:57.553Z,15.52
2022-12-04T13:46:24.209Z,13.20
2022-12-04T13:48:52.560Z,12.07
2022-12-04T13:51:39.504Z,12.43
2022-12-04T13:54:12.141Z,13.23
2022-12-04T13:56:44.466Z,21.02
2022-12-04T13:59:37.475Z,12.57
2022-12-04T14:02:22.597Z,13.77
2022-12-04T14:05:09.345Z,14.63
2022-12-04T14:07:39.559Z,10.13
2022-12-04T14:10:29.225Z,12.23
2022-12-04T14:13:07.085Z,10.32
2022-12-04T14:15:36.917Z,10.32
2022-12-04T14:18:17.645Z,10.98
2022-12-04T14:20:46.556Z,13.30
2022-12-04T14:23:23.356Z,9.50
2022-12-04T14:25:53.476Z,12.48
2022-12-04T14:28:42.184Z,11.95
2022-12-04T14:31:09.238Z,14.02
2022-12-04T14:34:02.937Z,15.50
2022-12-04T14:36:37.610Z,18.27
2022-12-04T14:39:23.442Z,18.52
2022-12-04T14:41:52.381Z,19.60
2022-12-04T14:44:28.021Z,19.85
2022-12-04T14:49:58.590Z,20.30
2022-12-04T14:52:38.227Z,16.52
2022-12-04T14:55:28.813Z,15.25
2022-12-04T14:58:00.214Z,15.07
2022-12-04T15:00:26.789Z,11.55
2022-12-04T15:02:57.977Z,17.42
2022-12-04T15:05:28.778Z,14.57
2022-12-04T15:08:01.159Z,15.52
2022-12-04T15:10:51.351Z,18.73
2022-12-04T15:13:31.495Z,14.50
2022-12-04T15:16:04.846Z,16.08
2022-12-04T15:18:34.259Z,10.55
2022-12-04T15:21:07.053Z,12.82
2022-12-04T15:23:33.503Z,11.75
2022-12-04T15:26:03.505Z,12.02
2022-12-04T15:28:41.995Z,10.85
2022-12-04T15:31:15.333Z,15.10
2022-12-04T15:33:42.849Z,8.82
2022-12-04T15:36:15.919Z,11.23
2022-12-04T15:38:51.337Z,14.55
2022-12-04T15:41:35.890Z,11.00
2022-12-04T15:44:24.865Z,10.98
2022-12-04T15:46:53.741Z,9.40
2022-12-04T15:49:26.036Z,9.43
2022-12-04T15:52:16.763Z,11.32
2022-12-04T15:55:07.356Z,9.73
2022-12-04T15:57:39.462Z,8.88
2022-12-04T16:00:23.792Z,8.57
2022-12-04T16:02:52.716Z,9.45
2022-12-04T16:05:22.169Z,10.68
2022-12-04T16:08:05.240Z,11.43
2022-12-04T16:10:34.557Z,10.93
2022-12-04T16:13:03.457Z,12.55
2022-12-04T16:15:49.246Z,11.45
2022-12-04T16:18:21.319Z,13.13
2022-12-04T16:20:51.826Z,11.30
2022-12-04T16:23:18.667Z,9.75
2022-12-04T16:25:45.320Z,12.15
2022-12-04T16:28:11.867Z,8.73
2022-12-04T16:30:40.284Z,13.95
2022-12-04T16:33:07.023Z,11.80
2022-12-04T16:35:33.715Z,9.27
2022-12-04T16:38:00.248Z,8.95
2022-12-04T16:40:26.733Z,12.75
2022-12-04T16:42:53.216Z,13.98
2022-12-04T16:45:27.805Z,11.98
2022-12-04T16:47:54.497Z,10.85
2022-12-04T16:50:27.178Z,15.25
2022-12-04T16:52:54.687Z,10.18
2022-12-04T16:55:34.330Z,11.18
2022-12-04T16:58:02.310Z,13.68
2022-12-04T17:00:29.429Z,12.95
2022-12-04T17:02:56.241Z,10.68
2022-12-04T17:05:26.325Z,12.00
2022-12-04T17:07:54.097Z,11.93
2022-12-04T17:10:24.040Z,12.80
2022-12-04T17:12:59.190Z,14.80
2022-12-04T17:15:25.732Z,11.57
2022-12-04T17:17:52.249Z,11.77
2022-12-04T17:20:23.105Z,12.25
2022-12-04T17:22:49.969Z,13.68
2022-12-04T17:25:17.581Z,15.02
2022-12-04T17:27:46.750Z,11.20
2022-12-04T17:30:14.368Z,12.95
2022-12-04T17:32:41.154Z,9.82
2022-12-04T17:35:09.449Z,12.10
2022-12-04T17:37:36.457Z,13.43
2022-12-04T17:40:02.982Z,14.40
2022-12-04T17:45:27.956Z,11.65
2022-12-04T17:47:54.409Z,15.35
2022-12-04T17:50:20.927Z,12.15
2022-12-04T17:52:47.701Z,12.88
2022-12-04T17:55:14.234Z,11.50
2022-12-04T17:57:43.016Z,11.38
2022-12-04T18:00:11.678Z,17.75
2022-12-04T18:02:38.274Z,8.25
2022-12-04T18:05:05.122Z,10.05
2022-12-04T18:07:31.805Z,12.02
2022-12-04T18:10:02.181Z,9.65
2022-12-04T18:12:28.698Z,10.05
2022-12-04T18:14:55.505Z,10.20
2022-12-04T18:17:22.014Z,11.80
2022-12-04T18:19:48.537Z,10.77
2022-12-04T18:22:15.326Z,10.60
2022-12-04T18:24:41.813Z,10.13
2022-12-04T18:27:08.914Z,9.63
2022-12-04T18:29:37.292Z,7.20
2022-12-04T18:32:03.949Z,9.07
2022-12-04T18:34:32.412Z,11.35
2022-12-04T18:37:00.750Z,15.43
2022-12-04T18:39:27.298Z,10.10
2022-12-04T18:41:57.241Z,10.70
2022-12-04T18:44:26.453Z,11.98
2022-12-04T18:46:53.580Z,15.73
2022-12-04T18:49:22.028Z,11.82
2022-12-04T18:51:50.289Z,11.10
2022-12-04T18:54:20.354Z,12.65
2022-12-04T18:56:47.071Z,12.07
2022-12-04T18:59:16.881Z,13.00
2022-12-04T19:01:52.025Z,13.07
2022-12-04T19:04:22.601Z,10.80
2022-12-04T19:06:51.649Z,19.10
2022-12-04T19:09:20.927Z,15.32
2022-12-04T19:11:47.542Z,14.95
2022-12-04T19:14:23.122Z,15.80
2022-12-04T19:16:53.286Z,19.50
2022-12-04T19:19:20.079Z,12.50
2022-12-04T19:21:46.605Z,19.63
2022-12-04T19:24:15.794Z,14.30
2022-12-04T19:26:43.038Z,17.73
2022-12-04T19:29:13.738Z,16.92
2022-12-04T19:31:50.130Z,14.70
2022-12-04T19:34:20.045Z,15.73
2022-12-04T19:36:47.417Z,17.27
2022-12-04T19:39:13.997Z,16.48
2022-12-04T19:41:41.382Z,14.75
2022-12-04T19:44:46.271Z,15.75
2022-12-04T19:46:56.426Z,27.98
2022-12-04T19:49:22.976Z,23.20
2022-12-04T19:51:49.573Z,24.45
2022-12-04T19:54:24.704Z,21.60
2022-12-04T19:56:52.513Z,22.48
2022-12-04T19:59:20.420Z,24.85
2022-12-04T20:01:49.129Z,22.67
2022-12-04T20:04:15.702Z,20.27
2022-12-04T20:06:44.701Z,22.67
2022-12-04T20:09:15.258Z,23.88
2022-12-04T20:11:45.578Z,24.90
2022-12-04T20:14:12.164Z,24.00
2022-12-04T20:16:40.137Z,27.55
2022-12-04T20:19:08.455Z,23.20
2022-12-04T20:21:35.058Z,22.70
2022-12-04T20:24:07.592Z,21.88
2022-12-04T20:26:38.359Z,21.15
2022-12-04T20:29:06.555Z,20.58
2022-12-04T20:31:37.689Z,19.25
2022-12-04T20:34:13.944Z,19.27
2022-12-04T20:36:44.706Z,17.73
2022-12-04T20:39:12.737Z,19.58
2022-12-04T20:41:40.061Z,19.77
2022-12-04T20:44:10.301Z,16.48
2022-12-04T20:46:38.620Z,17.58
2022-12-04T20:49:08.625Z,21.90
2022-12-04T20:51:47.274Z,17.25
2022-12-04T20:54:17.820Z,17.92
2022-12-04T20:56:46.051Z,19.10
2022-12-04T20:59:17.393Z,17.20
2022-12-04T21:01:43.996Z,16.70
2022-12-04T21:04:12.704Z,18.52
2022-12-04T21:06:45.686Z,19.23
2022-12-04T21:09:14.821Z,18.00
2022-12-04T21:11:47.633Z,22.10
2022-12-04T21:14:37.467Z,19.65
2022-12-04T21:17:07.435Z,15.13
2022-12-04T21:19:33.995Z,19.70
2022-12-04T21:22:00.518Z,20.83
2022-12-04T21:24:28.908Z,19.80
2022-12-04T21:26:56.060Z,17.25
2022-12-04T21:29:24.920Z,17.67
2022-12-04T21:31:51.639Z,17.58
2022-12-04T21:34:18.404Z,18.50
2022-12-04T21:36:46.439Z,16.58
2022-12-04T21:39:14.468Z,16.42
2022-12-04T21:41:59.963Z,17.33
2022-12-04T21:44:28.290Z,16.25
2022-12-04T21:46:54.893Z,16.42
2022-12-04T21:49:21.409Z,15.30
2022-12-04T21:51:58.484Z,15.55
2022-12-04T21:54:26.756Z,16.00
2022-12-04T21:57:03.400Z,15.13
2022-12-04T21:59:31.149Z,17.38
2022-12-04T22:01:57.677Z,16.13
2022-12-04T22:04:31.330Z,16.30
2022-12-04T22:09:26.286Z,17.73
2022-12-04T22:11:52.918Z,21.20
2022-12-04T22:14:19.486Z,25.85
2022-12-04T22:16:46.154Z,20.38
2022-12-04T22:19:23.044Z,15.95
2022-12-04T22:21:52.675Z,19.52
2022-12-04T22:24:19.209Z,21.90
2022-12-04T22:26:45.909Z,22.25
2022-12-04T22:29:48.524Z,16.73
2022-12-04T22:32:01.200Z,14.23
2022-12-04T22:34:27.997Z,18.30
2022-12-04T22:36:54.447Z,15.35
2022-12-04T22:39:22.689Z,13.23
2022-12-04T22:41:49.241Z,15.80
2022-12-04T22:44:15.776Z,12.15
2022-12-04T22:46:44.508Z,14.52
2022-12-04T22:49:11.144Z,12.85
2022-12-04T22:51:37.603Z,15.85
2022-12-04T22:54:10.190Z,16.73
2022-12-04T22:56:36.696Z,23.38
2022-12-04T22:59:03.186Z,19.20
2022-12-04T23:01:33.452Z,14.48
2022-12-04T23:04:01.885Z,14.48
2022-12-04T23:06:31.402Z,17.20
2022-12-04T23:09:03.364Z,19.65
2022-12-04T23:11:29.867Z,17.02
2022-12-04T23:14:00.268Z,19.30
2022-12-04T23:16:42.426Z,22.60
2022-12-04T23:19:12.500Z,19.30
2022-12-04T23:21:39.743Z,20.60
2022-12-04T23:24:06.799Z,22.33
2022-12-04T23:26:35.977Z,19.70
2022-12-04T23:29:03.209Z,21.13
2022-12-04T23:31:31.040Z,19.83
2022-12-04T23:34:03.065Z,26.33
2022-12-04T23:36:30.194Z,19.88
2022-12-04T23:38:58.481Z,26.98
2022-12-04T23:41:30.221Z,20.38
2022-12-04T23:43:57.526Z,20.42
2022-12-04T23:46:30.597Z,17.48
2022-12-04T23:48:57.209Z,24.42
2022-12-04T23:51:24.165Z,22.95
2022-12-04T23:54:02.440Z,28.08
2022-12-04T23:56:30.589Z,21.27
2022-12-04T23:58:57.489Z,17.90
